createdAt,value
2019-02-28T00:00:06.613Z,7.70
2019-02-28T00:05:11.171Z,7.60
2019-02-28T00:10:16.646Z,7.60
2019-02-28T00:15:22.139Z,7.60
2019-02-28T00:20:29.153Z,7.60
2019-02-28T00:25:37.517Z,7.50
2019-02-28T00:30:42.361Z,7.50
2019-02-28T00:35:47.763Z,7.40
2019-02-28T00:40:54.211Z,7.30
2019-02-28T00:45:59.805Z,7.30
2019-02-28T00:51:05.453Z,7.30
2019-02-28T00:56:11.452Z,7.40
2019-02-28T01:01:16.905Z,7.50
2019-02-28T01:06:22.493Z,7.60
2019-02-28T01:11:28.233Z,7.60
2019-02-28T01:16:33.959Z,7.60
2019-02-28T01:21:39.719Z,7.60
2019-02-28T01:26:46.766Z,7.60
2019-02-28T01:31:52.152Z,7.50
2019-02-28T01:36:57.781Z,7.50
2019-02-28T01:42:03.307Z,7.40
2019-02-28T01:47:09.010Z,7.40
2019-02-28T01:52:14.512Z,7.30
2019-02-28T01:57:19.929Z,7.30
2019-02-28T02:02:25.605Z,7.20
2019-02-28T02:07:33.344Z,7.10
2019-02-28T02:12:38.043Z,7.10
2019-02-28T02:17:43.455Z,7.30
2019-02-28T02:22:48.926Z,7.30
2019-02-28T02:27:54.449Z,7.20
2019-02-28T02:32:59.987Z,7.20
2019-02-28T02:38:05.474Z,7.20
2019-02-28T02:43:11.007Z,7.30
2019-02-28T02:48:16.595Z,7.20
2019-02-28T02:53:22.097Z,7.10
2019-02-28T02:58:28.199Z,7.10
2019-02-28T03:03:33.623Z,7.00
2019-02-28T03:08:39.365Z,6.90
2019-02-28T03:13:44.924Z,6.80
2019-02-28T03:18:56.553Z,6.80
2019-02-28T03:23:57.574Z,6.70
2019-02-28T03:29:07.508Z,6.70
2019-02-28T03:34:13.755Z,6.60
2019-02-28T03:39:24.229Z,6.60
2019-02-28T03:44:24.761Z,6.60
2019-02-28T03:49:30.176Z,6.50
2019-02-28T03:54:35.684Z,6.50
2019-02-28T03:59:41.743Z,6.50
2019-02-28T04:04:50.199Z,6.40
2019-02-28T04:09:54.323Z,6.40
2019-02-28T04:14:59.813Z,6.40
2019-02-28T04:20:05.532Z,6.30
2019-02-28T04:25:11.111Z,6.30
2019-02-28T04:30:16.637Z,6.30
2019-02-28T04:35:25.261Z,6.20
2019-02-28T04:40:29.523Z,6.10
2019-02-28T04:45:35.291Z,6.10
2019-02-28T04:50:40.750Z,6.10
2019-02-28T04:55:46.105Z,6.10
2019-02-28T05:00:51.576Z,6.20
2019-02-28T05:05:57.150Z,6.30
2019-02-28T05:11:03.185Z,6.40
2019-02-28T05:16:09.348Z,6.40
2019-02-28T05:21:16.554Z,6.40
2019-02-28T05:26:23.416Z,6.30
2019-02-28T05:31:28.900Z,6.20
2019-02-28T05:36:37.870Z,6.10
2019-02-28T05:41:42.010Z,6.00
2019-02-28T05:46:47.632Z,5.90
2019-02-28T05:51:53.235Z,5.90
2019-02-28T05:56:58.646Z,5.80
2019-02-28T06:02:04.134Z,5.80
2019-02-28T06:07:09.688Z,5.80
2019-02-28T06:12:15.304Z,5.80
2019-02-28T06:17:21.861Z,5.70
2019-02-28T06:22:27.326Z,5.80
2019-02-28T06:27:41.197Z,5.90
2019-02-28T06:32:40.113Z,6.00
2019-02-28T06:37:45.922Z,6.20
2019-02-28T06:42:51.437Z,6.30
2019-02-28T06:47:56.805Z,6.40
2019-02-28T06:53:02.291Z,6.50
2019-02-28T06:58:07.697Z,6.60
2019-02-28T07:03:13.308Z,6.80
2019-02-28T07:08:20.722Z,7.00
2019-02-28T07:13:25.795Z,7.20
2019-02-28T07:18:31.571Z,7.40
2019-02-28T07:23:37.096Z,7.60
2019-02-28T07:28:42.680Z,7.90
2019-02-28T07:33:48.067Z,8.20
2019-02-28T07:38:53.670Z,8.60
2019-02-28T07:43:59.317Z,9.30
2019-02-28T07:49:05.000Z,11.80
2019-02-28T07:54:12.632Z,15.50
2019-02-28T07:59:17.752Z,18.40
2019-02-28T08:04:23.344Z,20.70
2019-02-28T08:09:36.857Z,22.60
2019-02-28T08:14:43.670Z,24.20
2019-02-28T08:19:48.985Z,25.70
2019-02-28T08:24:54.441Z,26.70
2019-02-28T08:29:59.920Z,28.20
2019-02-28T08:35:05.591Z,29.70
2019-02-28T08:40:15.775Z,30.90
2019-02-28T08:45:21.928Z,32.20
2019-02-28T08:50:27.606Z,33.30
2019-02-28T08:55:33.479Z,33.90
2019-02-28T09:00:39.158Z,34.80
2019-02-28T09:05:45.308Z,34.80
2019-02-28T09:10:51.165Z,34.80
2019-02-28T09:15:57.318Z,35.30
2019-02-28T09:21:03.037Z,36.10
2019-02-28T09:26:08.752Z,37.40
2019-02-28T09:31:14.540Z,38.70
2019-02-28T09:36:20.891Z,38.80
2019-02-28T09:41:27.246Z,38.80
2019-02-28T09:46:32.983Z,38.70
2019-02-28T09:51:38.932Z,37.80
2019-02-28T09:56:45.305Z,38.00
2019-02-28T10:01:51.018Z,36.80
2019-02-28T10:06:56.999Z,35.10
2019-02-28T10:12:04.702Z,32.20
2019-02-28T10:17:10.128Z,29.10
2019-02-28T10:22:15.668Z,26.70
2019-02-28T10:27:23.303Z,25.00
2019-02-28T10:32:28.646Z,23.60
2019-02-28T10:37:35.654Z,22.60
2019-02-28T10:42:41.507Z,21.70
2019-02-28T10:47:46.996Z,20.90
2019-02-28T10:52:52.674Z,20.20
2019-02-28T10:57:58.147Z,19.70
2019-02-28T11:03:03.754Z,19.40
2019-02-28T11:08:12.474Z,19.30
2019-02-28T11:13:18.470Z,19.10
2019-02-28T11:18:24.107Z,19.20
2019-02-28T11:23:29.549Z,19.10
2019-02-28T11:28:35.025Z,18.90
2019-02-28T11:33:40.509Z,18.50
2019-02-28T11:38:45.924Z,18.20
2019-02-28T11:43:51.708Z,18.10
2019-02-28T11:48:57.445Z,17.90
2019-02-28T11:54:02.990Z,17.80
2019-02-28T11:59:08.442Z,17.80
2019-02-28T12:04:14.044Z,17.70
2019-02-28T12:09:20.114Z,17.40
2019-02-28T12:14:26.437Z,17.30
2019-02-28T12:19:32.742Z,17.30
2019-02-28T12:24:38.144Z,17.60
2019-02-28T12:29:45.692Z,18.00
2019-02-28T12:34:50.921Z,18.20
2019-02-28T12:39:56.703Z,18.30
2019-02-28T12:45:02.636Z,18.30
2019-02-28T12:50:09.219Z,18.20
2019-02-28T12:55:16.266Z,18.00
2019-02-28T13:00:25.362Z,17.70
2019-02-28T13:05:30.886Z,17.40
2019-02-28T13:10:36.538Z,17.00
2019-02-28T13:15:45.499Z,16.50
2019-02-28T13:20:49.134Z,15.80
2019-02-28T13:25:59.176Z,15.20
2019-02-28T13:31:02.026Z,15.00
2019-02-28T13:36:07.419Z,14.90
2019-02-28T13:41:17.807Z,14.60
2019-02-28T13:46:20.283Z,14.40
2019-02-28T13:51:25.751Z,14.00
2019-02-28T13:56:33.130Z,13.90
2019-02-28T14:01:39.859Z,13.90
2019-02-28T14:06:45.542Z,13.90
2019-02-28T14:11:51.951Z,13.90
2019-02-28T14:16:58.350Z,13.70
2019-02-28T14:22:04.267Z,13.60
2019-02-28T14:27:09.872Z,13.60
2019-02-28T14:32:15.626Z,13.70
2019-02-28T14:37:21.166Z,13.90
2019-02-28T14:42:27.037Z,14.00
2019-02-28T14:47:32.944Z,14.10
2019-02-28T14:52:39.402Z,14.10
2019-02-28T14:57:45.069Z,14.00
2019-02-28T15:02:50.803Z,13.90
2019-02-28T15:07:56.505Z,14.10
2019-02-28T15:13:02.183Z,14.40
2019-02-28T15:18:11.039Z,14.60
2019-02-28T15:23:15.529Z,14.70
2019-02-28T15:28:21.347Z,14.70
2019-02-28T15:33:27.508Z,14.90
2019-02-28T15:38:33.461Z,14.90
2019-02-28T15:43:39.392Z,14.80
2019-02-28T15:48:45.217Z,14.70
2019-02-28T15:53:50.717Z,14.60
2019-02-28T15:58:56.154Z,14.40
2019-02-28T16:04:01.530Z,14.30
2019-02-28T16:09:11.114Z,14.20
2019-02-28T16:14:16.493Z,14.10
2019-02-28T16:19:22.722Z,14.00
2019-02-28T16:24:30.878Z,13.80
2019-02-28T16:29:36.351Z,13.70
2019-02-28T16:34:42.231Z,13.50
2019-02-28T16:39:49.836Z,13.40
2019-02-28T16:44:55.314Z,13.30
2019-02-28T16:50:00.728Z,13.20
2019-02-28T16:55:06.737Z,13.10
2019-02-28T17:00:13.608Z,13.00
2019-02-28T17:05:19.051Z,12.90
2019-02-28T17:10:30.250Z,12.80
2019-02-28T17:16:01.383Z,12.70
2019-02-28T17:21:03.437Z,12.70
2019-02-28T17:26:09.044Z,12.70
2019-02-28T17:31:31.760Z,12.60
2019-02-28T17:36:37.233Z,12.60
2019-02-28T17:41:42.745Z,12.50
2019-02-28T17:46:51.552Z,12.30
2019-02-28T17:52:18.323Z,12.20
2019-02-28T17:58:29.801Z,12.20
2019-02-28T18:04:45.184Z,12.30
2019-02-28T18:10:25.122Z,12.20
2019-02-28T18:16:09.433Z,12.10
2019-02-28T18:21:51.648Z,12.00
2019-02-28T18:27:55.942Z,11.90
2019-02-28T18:33:03.154Z,11.90
2019-02-28T18:38:08.772Z,11.90
2019-02-28T18:43:14.807Z,11.90
2019-02-28T18:48:20.754Z,12.00
2019-02-28T18:53:26.670Z,12.10
2019-02-28T18:58:32.387Z,12.10
2019-02-28T19:03:38.194Z,12.20
2019-02-28T19:08:43.693Z,12.20
2019-02-28T19:13:49.188Z,12.20
2019-02-28T19:18:54.693Z,12.10
2019-02-28T19:24:00.027Z,12.10
2019-02-28T19:29:05.543Z,12.10
2019-02-28T19:34:10.949Z,12.00
2019-02-28T19:39:16.358Z,12.00
2019-02-28T19:44:23.657Z,12.00
2019-02-28T19:49:29.263Z,11.90
2019-02-28T19:54:34.715Z,11.90
2019-02-28T19:59:40.078Z,11.80
2019-02-28T20:04:45.773Z,11.80
2019-02-28T20:09:51.183Z,11.80
2019-02-28T20:14:56.577Z,11.70
2019-02-28T20:20:02.144Z,11.70
2019-02-28T20:25:10.198Z,11.70
2019-02-28T20:30:17.057Z,11.70
2019-02-28T20:35:26.474Z,11.70
2019-02-28T20:40:29.739Z,11.70
2019-02-28T20:45:35.209Z,11.70
2019-02-28T20:50:42.160Z,11.70
2019-02-28T20:55:47.696Z,11.70
2019-02-28T21:00:53.158Z,11.70
2019-02-28T21:05:58.527Z,11.70
2019-02-28T21:11:03.960Z,11.70
2019-02-28T21:16:09.460Z,11.60
2019-02-28T21:21:14.842Z,11.60
2019-02-28T21:26:20.317Z,11.50
2019-02-28T21:31:25.781Z,11.50
2019-02-28T21:36:31.528Z,11.40
2019-02-28T21:41:37.008Z,11.40
2019-02-28T21:46:42.378Z,11.30
2019-02-28T21:51:47.999Z,11.30
2019-02-28T21:56:54.804Z,11.30
2019-02-28T22:02:00.306Z,11.30
2019-02-28T22:07:05.743Z,11.30
2019-02-28T22:12:11.146Z,11.30
2019-02-28T22:17:17.180Z,11.30
2019-02-28T22:22:23.228Z,11.30
2019-02-28T22:27:29.041Z,11.20
2019-02-28T22:32:41.981Z,11.20
2019-02-28T22:37:47.780Z,11.10
2019-02-28T22:42:53.542Z,10.90
2019-02-28T22:47:59.470Z,10.80
2019-02-28T22:53:04.893Z,10.70
2019-02-28T22:58:11.405Z,10.70
2019-02-28T23:03:17.686Z,10.60
2019-02-28T23:08:23.369Z,10.60
2019-02-28T23:13:29.229Z,10.60
2019-02-28T23:18:34.970Z,10.70
2019-02-28T23:23:40.959Z,10.70
2019-02-28T23:28:55.398Z,10.80
2019-02-28T23:34:05.171Z,10.90
2019-02-28T23:39:11.181Z,10.90
2019-02-28T23:44:16.626Z,10.90
2019-02-28T23:49:23.037Z,10.90
2019-02-28T23:54:28.783Z,10.90
2019-02-28T23:59:34.322Z,10.90
